Hovedside
METAR-TAF:

METAR-TAF

Lufthavner :

Tunis, Tunisia

breddegrad: 36-50N, lengdegrad: 010-14E, høyde over havet: 3 m

Gjeldene værobservasjon

Denne rapporten ble laget for 38 minutter siden, klokken 21:00 UTC
Vind 3 kt fra Sør-sørøst
Temperatur 10°C
Luftfuktighet 82%
Trykk 1022 hPa
Sikt 10 km eller mer
Få skyer i en høyde av 2600 ft

METAR: DTTA 182100Z 16003KT 9999 FEW026 10/07 Q1022 NOSIG

Tid: 22:38 (21:38 UTC)

Varsel

Denne rapporten ble laget for 4 timer og 18 minutter siden, klokken 17:20 UTC
Varsel gyldig fra 18. klokken 18 UTC til 19. klokken 18 UTC
Vind 3 kt fra skiftende retning
Sikt 10 km eller mer
Få skyer i en høyde av 2600 ft
Blir
fra 19. klokken 03 UTC til 19. klokken 05 UTC
Vind 14 kt fra Sørvest

TAF: DTTA 181720Z 1818/1918 VRB03KT 9999 FEW026 BECMG 1903/1905 23014KT

Værobservasjoner og værvarsel for over 4000 flyplasser (METAR- og TAF-rapporter).

Tilgjengelige stasjoner er representert av de røde og gule prikkene på kartet.

Hold musepekeren over prikken for å se navnet på stasjonen.

Klikk så for å se værobservasjoner og -varsler.

For å forandre kartet kan du klikke på den grønne knappen med svart kryss for å zoome inn, på den grønne knappen med strek for å zoome ut, eller på de grønne pilene for å se tilstøtende kart.


METAR-TAF: